sensor_id;sensor_type;location;lat;lon;timestamp;P1;durP1;ratioP1;P2;durP2;ratioP2
39996;SDS011;25688;52.338;21.072;2023-08-31T00:02:13;25.42;;;14.43;;
39996;SDS011;25688;52.338;21.072;2023-08-31T00:04:38;22.63;;;14.05;;
39996;SDS011;25688;52.338;21.072;2023-08-31T00:07:04;26.13;;;15.35;;
39996;SDS011;25688;52.338;21.072;2023-08-31T00:09:31;28.52;;;14.48;;
39996;SDS011;25688;52.338;21.072;2023-08-31T00:11:57;26.48;;;14.27;;
39996;SDS011;25688;52.338;21.072;2023-08-31T00:14:24;25.52;;;14.60;;
39996;SDS011;25688;52.338;21.072;2023-08-31T00:16:50;24.73;;;14.70;;
39996;SDS011;25688;52.338;21.072;2023-08-31T00:19:16;30.70;;;15.90;;
39996;SDS011;25688;52.338;21.072;2023-08-31T00:21:42;32.97;;;16.65;;
39996;SDS011;25688;52.338;21.072;2023-08-31T00:24:08;29.50;;;15.88;;
39996;SDS011;25688;52.338;21.072;2023-08-31T00:26:35;30.20;;;15.68;;
39996;SDS011;25688;52.338;21.072;2023-08-31T00:29:10;28.50;;;16.35;;
39996;SDS011;25688;52.338;21.072;2023-08-31T00:31:36;27.90;;;16.42;;
39996;SDS011;25688;52.338;21.072;2023-08-31T00:34:02;27.38;;;15.77;;
39996;SDS011;25688;52.338;21.072;2023-08-31T00:36:32;28.30;;;15.57;;
39996;SDS011;25688;52.338;21.072;2023-08-31T00:39:02;26.65;;;15.50;;
39996;SDS011;25688;52.338;21.072;2023-08-31T00:41:30;25.95;;;14.50;;
39996;SDS011;25688;52.338;21.072;2023-08-31T00:43:56;28.83;;;14.05;;
39996;SDS011;25688;52.338;21.072;2023-08-31T00:46:22;23.60;;;14.27;;
39996;SDS011;25688;52.338;21.072;2023-08-31T00:48:48;28.55;;;15.90;;
39996;SDS011;25688;52.338;21.072;2023-08-31T00:51:13;23.77;;;14.23;;
39996;SDS011;25688;52.338;21.072;2023-08-31T00:53:39;24.60;;;14.00;;
39996;SDS011;25688;52.338;21.072;2023-08-31T00:56:06;23.73;;;13.50;;
39996;SDS011;25688;52.338;21.072;2023-08-31T00:58:33;23.38;;;13.25;;
39996;SDS011;25688;52.338;21.072;2023-08-31T01:03:40;22.13;;;13.48;;
39996;SDS011;25688;52.338;21.072;2023-08-31T01:08:50;19.73;;;13.20;;
39996;SDS011;25688;52.338;21.072;2023-08-31T01:11:34;27.95;;;15.80;;
39996;SDS011;25688;52.338;21.072;2023-08-31T01:14:12;25.25;;;14.23;;
39996;SDS011;25688;52.338;21.072;2023-08-31T01:16:45;22.65;;;14.05;;
39996;SDS011;25688;52.338;21.072;2023-08-31T01:19:57;23.95;;;15.02;;
39996;SDS011;25688;52.338;21.072;2023-08-31T01:22:11;24.33;;;13.60;;
39996;SDS011;25688;52.338;21.072;2023-08-31T01:24:42;23.63;;;13.75;;
39996;SDS011;25688;52.338;21.072;2023-08-31T01:27:09;22.67;;;13.60;;
39996;SDS011;25688;52.338;21.072;2023-08-31T01:29:35;21.23;;;12.48;;
39996;SDS011;25688;52.338;21.072;2023-08-31T01:32:04;21.15;;;12.82;;
39996;SDS011;25688;52.338;21.072;2023-08-31T01:34:32;24.77;;;13.85;;
39996;SDS011;25688;52.338;21.072;2023-08-31T01:36:58;22.38;;;13.00;;
39996;SDS011;25688;52.338;21.072;2023-08-31T01:41:58;21.10;;;13.02;;
39996;SDS011;25688;52.338;21.072;2023-08-31T01:44:28;22.20;;;12.23;;
39996;SDS011;25688;52.338;21.072;2023-08-31T01:47:04;21.23;;;13.45;;
39996;SDS011;25688;52.338;21.072;2023-08-31T01:49:39;20.23;;;13.23;;
39996;SDS011;25688;52.338;21.072;2023-08-31T01:52:06;16.40;;;12.27;;
39996;SDS011;25688;52.338;21.072;2023-08-31T01:54:32;19.92;;;13.18;;
39996;SDS011;25688;52.338;21.072;2023-08-31T01:56:59;18.35;;;12.85;;
39996;SDS011;25688;52.338;21.072;2023-08-31T01:59:25;23.05;;;13.55;;
39996;SDS011;25688;52.338;21.072;2023-08-31T02:01:52;19.00;;;12.82;;
39996;SDS011;25688;52.338;21.072;2023-08-31T02:04:17;18.98;;;12.75;;
39996;SDS011;25688;52.338;21.072;2023-08-31T02:06:43;21.63;;;14.07;;
39996;SDS011;25688;52.338;21.072;2023-08-31T02:09:09;19.15;;;12.95;;
39996;SDS011;25688;52.338;21.072;2023-08-31T02:11:35;18.25;;;12.23;;
39996;SDS011;25688;52.338;21.072;2023-08-31T02:14:03;20.27;;;13.13;;
39996;SDS011;25688;52.338;21.072;2023-08-31T02:16:30;19.85;;;12.30;;
39996;SDS011;25688;52.338;21.072;2023-08-31T02:18:56;20.10;;;12.60;;
39996;SDS011;25688;52.338;21.072;2023-08-31T02:21:22;21.63;;;13.02;;
39996;SDS011;25688;52.338;21.072;2023-08-31T02:23:48;23.98;;;13.90;;
39996;SDS011;25688;52.338;21.072;2023-08-31T02:26:14;23.85;;;13.52;;
39996;SDS011;25688;52.338;21.072;2023-08-31T02:29:14;19.95;;;12.73;;
39996;SDS011;25688;52.338;21.072;2023-08-31T02:31:39;19.35;;;13.10;;
39996;SDS011;25688;52.338;21.072;2023-08-31T02:34:06;21.52;;;13.15;;
39996;SDS011;25688;52.338;21.072;2023-08-31T02:36:32;21.75;;;12.82;;
39996;SDS011;25688;52.338;21.072;2023-08-31T02:38:58;17.80;;;11.90;;
39996;SDS011;25688;52.338;21.072;2023-08-31T02:41:24;20.83;;;13.32;;
39996;SDS011;25688;52.338;21.072;2023-08-31T02:43:50;21.70;;;12.93;;
39996;SDS011;25688;52.338;21.072;2023-08-31T02:46:17;20.63;;;12.43;;
39996;SDS011;25688;52.338;21.072;2023-08-31T02:48:43;18.48;;;12.18;;
39996;SDS011;25688;52.338;21.072;2023-08-31T02:51:09;21.48;;;13.13;;
39996;SDS011;25688;52.338;21.072;2023-08-31T02:53:35;22.45;;;13.50;;
39996;SDS011;25688;52.338;21.072;2023-08-31T02:56:01;20.35;;;12.73;;
39996;SDS011;25688;52.338;21.072;2023-08-31T02:58:27;21.83;;;13.38;;
39996;SDS011;25688;52.338;21.072;2023-08-31T03:00:53;31.80;;;13.10;;
39996;SDS011;25688;52.338;21.072;2023-08-31T03:03:19;23.55;;;12.63;;
39996;SDS011;25688;52.338;21.072;2023-08-31T03:05:45;18.63;;;11.73;;
39996;SDS011;25688;52.338;21.072;2023-08-31T03:08:11;18.52;;;11.88;;
39996;SDS011;25688;52.338;21.072;2023-08-31T03:10:38;18.75;;;11.23;;
39996;SDS011;25688;52.338;21.072;2023-08-31T03:13:04;19.05;;;11.68;;
39996;SDS011;25688;52.338;21.072;2023-08-31T03:15:33;20.25;;;11.10;;
39996;SDS011;25688;52.338;21.072;2023-08-31T03:17:59;19.02;;;12.35;;
39996;SDS011;25688;52.338;21.072;2023-08-31T03:20:25;19.83;;;11.63;;
39996;SDS011;25688;52.338;21.072;2023-08-31T03:22:51;18.70;;;12.73;;
39996;SDS011;25688;52.338;21.072;2023-08-31T03:25:17;17.75;;;11.77;;
39996;SDS011;25688;52.338;21.072;2023-08-31T03:27:42;17.33;;;11.50;;
39996;SDS011;25688;52.338;21.072;2023-08-31T03:30:09;16.02;;;11.30;;
39996;SDS011;25688;52.338;21.072;2023-08-31T03:32:35;19.48;;;13.25;;
39996;SDS011;25688;52.338;21.072;2023-08-31T03:35:04;17.98;;;12.30;;
39996;SDS011;25688;52.338;21.072;2023-08-31T03:37:30;16.38;;;11.48;;
39996;SDS011;25688;52.338;21.072;2023-08-31T03:39:56;18.85;;;12.00;;
39996;SDS011;25688;52.338;21.072;2023-08-31T03:42:21;19.23;;;12.32;;
39996;SDS011;25688;52.338;21.072;2023-08-31T03:44:47;22.10;;;11.77;;
39996;SDS011;25688;52.338;21.072;2023-08-31T03:47:13;21.45;;;11.30;;
39996;SDS011;25688;52.338;21.072;2023-08-31T03:49:39;15.75;;;10.57;;
39996;SDS011;25688;52.338;21.072;2023-08-31T03:52:04;16.33;;;10.48;;
39996;SDS011;25688;52.338;21.072;2023-08-31T03:54:30;16.48;;;10.20;;
39996;SDS011;25688;52.338;21.072;2023-08-31T03:56:56;15.60;;;9.15;;
39996;SDS011;25688;52.338;21.072;2023-08-31T03:59:22;13.45;;;8.88;;
39996;SDS011;25688;52.338;21.072;2023-08-31T04:01:48;13.45;;;9.13;;
39996;SDS011;25688;52.338;21.072;2023-08-31T04:04:13;12.45;;;8.43;;
39996;SDS011;25688;52.338;21.072;2023-08-31T04:06:39;12.77;;;8.35;;
39996;SDS011;25688;52.338;21.072;2023-08-31T04:09:05;11.80;;;7.90;;
39996;SDS011;25688;52.338;21.072;2023-08-31T04:11:30;11.27;;;6.90;;
39996;SDS011;25688;52.338;21.072;2023-08-31T04:13:59;10.20;;;7.25;;
39996;SDS011;25688;52.338;21.072;2023-08-31T04:16:24;16.08;;;7.68;;
39996;SDS011;25688;52.338;21.072;2023-08-31T04:18:50;12.13;;;7.80;;
39996;SDS011;25688;52.338;21.072;2023-08-31T04:21:18;12.52;;;7.30;;
39996;SDS011;25688;52.338;21.072;2023-08-31T04:23:44;10.02;;;5.93;;
39996;SDS011;25688;52.338;21.072;2023-08-31T04:26:11;12.32;;;6.38;;
39996;SDS011;25688;52.338;21.072;2023-08-31T04:28:38;9.20;;;5.88;;
39996;SDS011;25688;52.338;21.072;2023-08-31T04:31:05;11.70;;;6.72;;
39996;SDS011;25688;52.338;21.072;2023-08-31T04:33:33;11.82;;;6.45;;
39996;SDS011;25688;52.338;21.072;2023-08-31T04:36:03;9.03;;;5.97;;
39996;SDS011;25688;52.338;21.072;2023-08-31T04:38:30;10.07;;;5.85;;
39996;SDS011;25688;52.338;21.072;2023-08-31T04:41:00;8.55;;;6.05;;
39996;SDS011;25688;52.338;21.072;2023-08-31T04:43:26;10.38;;;5.57;;
39996;SDS011;25688;52.338;21.072;2023-08-31T04:45:52;11.65;;;5.53;;
39996;SDS011;25688;52.338;21.072;2023-08-31T04:48:18;10.07;;;5.28;;
39996;SDS011;25688;52.338;21.072;2023-08-31T04:50:44;10.48;;;5.30;;
39996;SDS011;25688;52.338;21.072;2023-08-31T04:53:09;8.60;;;5.22;;
39996;SDS011;25688;52.338;21.072;2023-08-31T04:55:35;8.18;;;4.75;;
39996;SDS011;25688;52.338;21.072;2023-08-31T04:58:01;9.00;;;4.38;;
39996;SDS011;25688;52.338;21.072;2023-08-31T05:00:26;6.35;;;4.57;;
39996;SDS011;25688;52.338;21.072;2023-08-31T05:02:52;8.95;;;4.22;;
39996;SDS011;25688;52.338;21.072;2023-08-31T05:05:17;7.20;;;4.20;;
39996;SDS011;25688;52.338;21.072;2023-08-31T05:07:43;6.38;;;3.90;;
39996;SDS011;25688;52.338;21.072;2023-08-31T05:10:09;7.60;;;3.53;;
39996;SDS011;25688;52.338;21.072;2023-08-31T05:12:35;7.13;;;3.33;;
39996;SDS011;25688;52.338;21.072;2023-08-31T05:15:01;6.97;;;2.50;;
39996;SDS011;25688;52.338;21.072;2023-08-31T05:17:27;6.32;;;2.70;;
39996;SDS011;25688;52.338;21.072;2023-08-31T05:19:53;5.25;;;2.58;;
39996;SDS011;25688;52.338;21.072;2023-08-31T05:22:19;6.10;;;2.22;;
39996;SDS011;25688;52.338;21.072;2023-08-31T05:24:45;5.15;;;2.50;;
39996;SDS011;25688;52.338;21.072;2023-08-31T05:27:10;4.53;;;1.90;;
39996;SDS011;25688;52.338;21.072;2023-08-31T05:29:36;3.58;;;1.88;;
39996;SDS011;25688;52.338;21.072;2023-08-31T05:32:01;4.30;;;2.03;;
39996;SDS011;25688;52.338;21.072;2023-08-31T05:34:27;4.55;;;1.80;;
39996;SDS011;25688;52.338;21.072;2023-08-31T05:36:53;4.00;;;1.85;;
39996;SDS011;25688;52.338;21.072;2023-08-31T05:39:19;5.07;;;1.88;;
39996;SDS011;25688;52.338;21.072;2023-08-31T05:41:45;4.20;;;1.90;;
39996;SDS011;25688;52.338;21.072;2023-08-31T05:44:10;4.57;;;1.83;;
39996;SDS011;25688;52.338;21.072;2023-08-31T05:46:36;3.55;;;1.80;;
39996;SDS011;25688;52.338;21.072;2023-08-31T05:49:03;4.60;;;1.83;;
39996;SDS011;25688;52.338;21.072;2023-08-31T05:51:29;4.60;;;1.98;;
39996;SDS011;25688;52.338;21.072;2023-08-31T05:53:54;4.72;;;2.25;;
39996;SDS011;25688;52.338;21.072;2023-08-31T05:56:20;4.97;;;2.13;;
39996;SDS011;25688;52.338;21.072;2023-08-31T05:58:46;3.88;;;2.00;;
39996;SDS011;25688;52.338;21.072;2023-08-31T06:01:12;6.68;;;2.78;;
39996;SDS011;25688;52.338;21.072;2023-08-31T06:03:38;4.20;;;2.00;;
39996;SDS011;25688;52.338;21.072;2023-08-31T06:06:04;4.70;;;1.83;;
39996;SDS011;25688;52.338;21.072;2023-08-31T06:08:29;5.18;;;1.80;;
39996;SDS011;25688;52.338;21.072;2023-08-31T06:10:55;5.22;;;2.38;;
39996;SDS011;25688;52.338;21.072;2023-08-31T06:13:21;5.25;;;2.63;;
39996;SDS011;25688;52.338;21.072;2023-08-31T06:15:47;5.13;;;2.85;;
39996;SDS011;25688;52.338;21.072;2023-08-31T06:18:13;5.95;;;3.13;;
39996;SDS011;25688;52.338;21.072;2023-08-31T06:20:39;6.10;;;3.67;;
39996;SDS011;25688;52.338;21.072;2023-08-31T06:23:04;6.60;;;4.40;;
39996;SDS011;25688;52.338;21.072;2023-08-31T06:25:31;8.32;;;4.90;;
39996;SDS011;25688;52.338;21.072;2023-08-31T06:27:57;12.15;;;5.25;;
39996;SDS011;25688;52.338;21.072;2023-08-31T06:30:23;8.75;;;4.90;;
39996;SDS011;25688;52.338;21.072;2023-08-31T06:32:49;7.38;;;4.40;;
39996;SDS011;25688;52.338;21.072;2023-08-31T06:35:15;12.05;;;5.90;;
39996;SDS011;25688;52.338;21.072;2023-08-31T06:37:41;9.95;;;5.95;;
39996;SDS011;25688;52.338;21.072;2023-08-31T06:40:07;12.00;;;5.80;;
39996;SDS011;25688;52.338;21.072;2023-08-31T06:42:37;7.78;;;5.10;;
39996;SDS011;25688;52.338;21.072;2023-08-31T06:45:03;9.50;;;5.85;;
39996;SDS011;25688;52.338;21.072;2023-08-31T06:47:30;8.75;;;5.07;;
39996;SDS011;25688;52.338;21.072;2023-08-31T06:49:56;8.70;;;4.68;;
39996;SDS011;25688;52.338;21.072;2023-08-31T06:52:23;8.77;;;3.78;;
39996;SDS011;25688;52.338;21.072;2023-08-31T06:54:49;8.70;;;3.80;;
39996;SDS011;25688;52.338;21.072;2023-08-31T06:57:15;5.90;;;3.72;;
39996;SDS011;25688;52.338;21.072;2023-08-31T06:59:41;7.32;;;3.15;;
39996;SDS011;25688;52.338;21.072;2023-08-31T07:02:06;8.60;;;2.97;;
39996;SDS011;25688;52.338;21.072;2023-08-31T07:04:32;5.05;;;2.40;;
39996;SDS011;25688;52.338;21.072;2023-08-31T07:06:58;5.50;;;2.70;;
39996;SDS011;25688;52.338;21.072;2023-08-31T07:09:24;6.15;;;2.70;;
39996;SDS011;25688;52.338;21.072;2023-08-31T07:11:52;7.93;;;2.97;;
39996;SDS011;25688;52.338;21.072;2023-08-31T07:14:17;4.68;;;2.38;;
39996;SDS011;25688;52.338;21.072;2023-08-31T07:16:43;5.93;;;2.65;;
39996;SDS011;25688;52.338;21.072;2023-08-31T07:19:09;7.07;;;2.90;;
39996;SDS011;25688;52.338;21.072;2023-08-31T07:21:34;5.93;;;2.50;;
39996;SDS011;25688;52.338;21.072;2023-08-31T07:24:00;7.45;;;2.50;;
39996;SDS011;25688;52.338;21.072;2023-08-31T07:26:26;7.45;;;2.70;;
39996;SDS011;25688;52.338;21.072;2023-08-31T07:28:51;5.15;;;2.72;;
39996;SDS011;25688;52.338;21.072;2023-08-31T07:31:17;7.13;;;2.55;;
39996;SDS011;25688;52.338;21.072;2023-08-31T07:33:43;5.05;;;2.20;;
39996;SDS011;25688;52.338;21.072;2023-08-31T07:36:08;4.18;;;2.25;;
39996;SDS011;25688;52.338;21.072;2023-08-31T07:38:34;3.78;;;2.00;;
39996;SDS011;25688;52.338;21.072;2023-08-31T07:41:00;4.95;;;2.33;;
39996;SDS011;25688;52.338;21.072;2023-08-31T07:43:26;4.30;;;2.00;;
39996;SDS011;25688;52.338;21.072;2023-08-31T07:45:52;4.53;;;2.20;;
39996;SDS011;25688;52.338;21.072;2023-08-31T07:48:18;4.60;;;1.63;;
39996;SDS011;25688;52.338;21.072;2023-08-31T07:50:44;4.28;;;1.90;;
39996;SDS011;25688;52.338;21.072;2023-08-31T07:53:11;6.13;;;1.88;;
39996;SDS011;25688;52.338;21.072;2023-08-31T07:55:38;4.18;;;2.20;;
39996;SDS011;25688;52.338;21.072;2023-08-31T07:58:04;4.57;;;1.70;;
39996;SDS011;25688;52.338;21.072;2023-08-31T08:00:30;6.00;;;1.90;;
39996;SDS011;25688;52.338;21.072;2023-08-31T08:02:56;4.50;;;1.83;;
39996;SDS011;25688;52.338;21.072;2023-08-31T08:05:21;5.10;;;1.90;;
39996;SDS011;25688;52.338;21.072;2023-08-31T08:07:47;3.83;;;1.42;;
39996;SDS011;25688;52.338;21.072;2023-08-31T08:10:13;5.80;;;1.52;;
39996;SDS011;25688;52.338;21.072;2023-08-31T08:12:40;3.90;;;1.60;;
39996;SDS011;25688;52.338;21.072;2023-08-31T08:15:08;4.20;;;2.08;;
39996;SDS011;25688;52.338;21.072;2023-08-31T08:17:34;3.47;;;1.58;;
39996;SDS011;25688;52.338;21.072;2023-08-31T08:20:00;3.58;;;1.48;;
39996;SDS011;25688;52.338;21.072;2023-08-31T08:22:26;5.60;;;1.85;;
39996;SDS011;25688;52.338;21.072;2023-08-31T08:24:52;4.75;;;1.90;;
39996;SDS011;25688;52.338;21.072;2023-08-31T08:27:17;5.25;;;1.95;;
39996;SDS011;25688;52.338;21.072;2023-08-31T08:29:44;4.07;;;1.50;;
39996;SDS011;25688;52.338;21.072;2023-08-31T08:32:10;4.40;;;1.30;;
39996;SDS011;25688;52.338;21.072;2023-08-31T08:34:36;3.22;;;1.15;;
39996;SDS011;25688;52.338;21.072;2023-08-31T08:37:01;2.80;;;1.30;;
39996;SDS011;25688;52.338;21.072;2023-08-31T08:39:29;4.18;;;1.70;;
39996;SDS011;25688;52.338;21.072;2023-08-31T08:41:55;2.95;;;1.50;;
39996;SDS011;25688;52.338;21.072;2023-08-31T08:44:24;3.88;;;1.60;;
39996;SDS011;25688;52.338;21.072;2023-08-31T08:46:51;4.43;;;1.42;;
39996;SDS011;25688;52.338;21.072;2023-08-31T08:49:18;4.00;;;1.40;;
39996;SDS011;25688;52.338;21.072;2023-08-31T08:51:47;2.88;;;1.25;;
39996;SDS011;25688;52.338;21.072;2023-08-31T08:54:13;3.00;;;1.08;;
39996;SDS011;25688;52.338;21.072;2023-08-31T08:56:39;4.40;;;1.20;;
39996;SDS011;25688;52.338;21.072;2023-08-31T08:59:05;2.85;;;1.20;;
39996;SDS011;25688;52.338;21.072;2023-08-31T09:01:32;3.25;;;1.08;;
39996;SDS011;25688;52.338;21.072;2023-08-31T09:04:00;3.53;;;1.08;;
39996;SDS011;25688;52.338;21.072;2023-08-31T09:06:27;4.18;;;1.13;;
39996;SDS011;25688;52.338;21.072;2023-08-31T09:08:56;4.43;;;1.00;;
39996;SDS011;25688;52.338;21.072;2023-08-31T09:11:22;3.50;;;1.58;;
39996;SDS011;25688;52.338;21.072;2023-08-31T09:13:48;3.60;;;1.20;;
39996;SDS011;25688;52.338;21.072;2023-08-31T09:16:25;3.63;;;1.40;;
39996;SDS011;25688;52.338;21.072;2023-08-31T09:18:51;3.17;;;1.20;;
39996;SDS011;25688;52.338;21.072;2023-08-31T09:21:17;4.50;;;1.65;;
39996;SDS011;25688;52.338;21.072;2023-08-31T09:23:47;4.45;;;1.92;;
39996;SDS011;25688;52.338;21.072;2023-08-31T09:26:21;6.03;;;1.40;;
39996;SDS011;25688;52.338;21.072;2023-08-31T09:28:47;3.22;;;1.50;;
39996;SDS011;25688;52.338;21.072;2023-08-31T09:31:14;4.15;;;1.48;;
39996;SDS011;25688;52.338;21.072;2023-08-31T09:33:42;4.38;;;1.60;;
39996;SDS011;25688;52.338;21.072;2023-08-31T09:36:18;4.80;;;1.92;;
39996;SDS011;25688;52.338;21.072;2023-08-31T09:38:45;4.53;;;1.40;;
39996;SDS011;25688;52.338;21.072;2023-08-31T09:41:11;6.03;;;1.85;;
39996;SDS011;25688;52.338;21.072;2023-08-31T09:43:37;5.55;;;1.63;;
39996;SDS011;25688;52.338;21.072;2023-08-31T09:46:04;4.22;;;1.85;;
39996;SDS011;25688;52.338;21.072;2023-08-31T09:48:30;5.00;;;1.67;;
39996;SDS011;25688;52.338;21.072;2023-08-31T09:50:56;5.60;;;1.27;;
39996;SDS011;25688;52.338;21.072;2023-08-31T09:53:26;5.32;;;1.95;;
39996;SDS011;25688;52.338;21.072;2023-08-31T09:55:56;5.05;;;1.80;;
39996;SDS011;25688;52.338;21.072;2023-08-31T09:58:22;4.78;;;2.00;;
39996;SDS011;25688;52.338;21.072;2023-08-31T10:00:49;4.18;;;1.73;;
39996;SDS011;25688;52.338;21.072;2023-08-31T10:03:16;6.63;;;1.90;;
39996;SDS011;25688;52.338;21.072;2023-08-31T10:05:43;4.57;;;1.70;;
39996;SDS011;25688;52.338;21.072;2023-08-31T10:08:10;4.32;;;2.15;;
39996;SDS011;25688;52.338;21.072;2023-08-31T10:10:37;5.80;;;2.00;;
39996;SDS011;25688;52.338;21.072;2023-08-31T10:13:04;4.22;;;1.77;;
39996;SDS011;25688;52.338;21.072;2023-08-31T10:15:34;3.85;;;1.75;;
39996;SDS011;25688;52.338;21.072;2023-08-31T10:18:01;6.25;;;2.08;;
39996;SDS011;25688;52.338;21.072;2023-08-31T10:20:28;5.18;;;1.80;;
39996;SDS011;25688;52.338;21.072;2023-08-31T10:22:59;4.15;;;1.85;;
39996;SDS011;25688;52.338;21.072;2023-08-31T10:25:25;4.93;;;1.85;;
39996;SDS011;25688;52.338;21.072;2023-08-31T10:28:19;6.45;;;1.75;;
39996;SDS011;25688;52.338;21.072;2023-08-31T10:31:02;5.35;;;1.85;;
39996;SDS011;25688;52.338;21.072;2023-08-31T10:33:31;4.55;;;1.45;;
39996;SDS011;25688;52.338;21.072;2023-08-31T10:35:59;4.85;;;1.85;;
39996;SDS011;25688;52.338;21.072;2023-08-31T10:38:32;4.93;;;2.00;;
39996;SDS011;25688;52.338;21.072;2023-08-31T10:41:02;5.60;;;2.00;;
39996;SDS011;25688;52.338;21.072;2023-08-31T10:44:03;5.45;;;1.77;;
39996;SDS011;25688;52.338;21.072;2023-08-31T10:49:31;4.80;;;1.98;;
39996;SDS011;25688;52.338;21.072;2023-08-31T10:52:15;6.35;;;2.03;;
39996;SDS011;25688;52.338;21.072;2023-08-31T10:54:46;4.18;;;1.95;;
39996;SDS011;25688;52.338;21.072;2023-08-31T10:57:12;4.40;;;2.10;;
39996;SDS011;25688;52.338;21.072;2023-08-31T10:59:43;4.10;;;2.25;;
39996;SDS011;25688;52.338;21.072;2023-08-31T11:04:55;5.90;;;2.63;;
39996;SDS011;25688;52.338;21.072;2023-08-31T11:07:29;6.10;;;2.55;;
39996;SDS011;25688;52.338;21.072;2023-08-31T11:12:37;6.80;;;2.80;;
39996;SDS011;25688;52.338;21.072;2023-08-31T11:15:04;5.85;;;2.72;;
39996;SDS011;25688;52.338;21.072;2023-08-31T11:17:30;4.80;;;2.22;;
39996;SDS011;25688;52.338;21.072;2023-08-31T11:19:59;5.82;;;2.55;;
39996;SDS011;25688;52.338;21.072;2023-08-31T11:22:25;4.88;;;2.60;;
39996;SDS011;25688;52.338;21.072;2023-08-31T11:24:52;5.90;;;2.60;;
39996;SDS011;25688;52.338;21.072;2023-08-31T11:27:21;4.50;;;2.70;;
39996;SDS011;25688;52.338;21.072;2023-08-31T11:29:47;5.75;;;2.63;;
39996;SDS011;25688;52.338;21.072;2023-08-31T11:32:13;5.15;;;2.70;;
39996;SDS011;25688;52.338;21.072;2023-08-31T11:34:43;8.20;;;3.00;;
39996;SDS011;25688;52.338;21.072;2023-08-31T11:37:12;5.40;;;2.63;;
39996;SDS011;25688;52.338;21.072;2023-08-31T11:39:51;6.25;;;3.00;;
39996;SDS011;25688;52.338;21.072;2023-08-31T11:42:18;7.05;;;3.35;;
39996;SDS011;25688;52.338;21.072;2023-08-31T11:44:46;8.40;;;4.03;;
39996;SDS011;25688;52.338;21.072;2023-08-31T11:47:13;5.45;;;3.30;;
39996;SDS011;25688;52.338;21.072;2023-08-31T11:49:41;5.40;;;2.80;;
39996;SDS011;25688;52.338;21.072;2023-08-31T11:52:09;5.20;;;3.30;;
39996;SDS011;25688;52.338;21.072;2023-08-31T11:54:37;5.90;;;2.95;;
39996;SDS011;25688;52.338;21.072;2023-08-31T11:57:06;8.55;;;3.00;;
39996;SDS011;25688;52.338;21.072;2023-08-31T11:59:34;7.93;;;3.00;;
39996;SDS011;25688;52.338;21.072;2023-08-31T12:02:01;4.85;;;2.80;;
39996;SDS011;25688;52.338;21.072;2023-08-31T12:04:30;5.15;;;2.60;;
39996;SDS011;25688;52.338;21.072;2023-08-31T12:07:00;5.22;;;2.92;;
39996;SDS011;25688;52.338;21.072;2023-08-31T12:09:31;9.00;;;2.85;;
39996;SDS011;25688;52.338;21.072;2023-08-31T12:11:58;4.63;;;2.50;;
39996;SDS011;25688;52.338;21.072;2023-08-31T12:14:25;5.15;;;2.92;;
39996;SDS011;25688;52.338;21.072;2023-08-31T12:16:52;5.35;;;2.88;;
39996;SDS011;25688;52.338;21.072;2023-08-31T12:19:26;5.55;;;2.83;;
39996;SDS011;25688;52.338;21.072;2023-08-31T12:21:54;5.55;;;3.42;;
39996;SDS011;25688;52.338;21.072;2023-08-31T12:24:20;7.25;;;3.15;;
39996;SDS011;25688;52.338;21.072;2023-08-31T12:26:47;6.47;;;3.00;;
39996;SDS011;25688;52.338;21.072;2023-08-31T12:29:13;6.78;;;3.15;;
39996;SDS011;25688;52.338;21.072;2023-08-31T12:31:38;6.30;;;3.42;;
39996;SDS011;25688;52.338;21.072;2023-08-31T12:34:04;6.13;;;3.00;;
39996;SDS011;25688;52.338;21.072;2023-08-31T12:36:32;6.10;;;3.03;;
39996;SDS011;25688;52.338;21.072;2023-08-31T12:38:58;5.13;;;3.03;;
39996;SDS011;25688;52.338;21.072;2023-08-31T12:41:27;5.05;;;3.10;;
39996;SDS011;25688;52.338;21.072;2023-08-31T12:43:53;4.82;;;3.00;;
39996;SDS011;25688;52.338;21.072;2023-08-31T12:46:19;6.60;;;3.00;;
39996;SDS011;25688;52.338;21.072;2023-08-31T12:48:45;7.45;;;3.40;;
39996;SDS011;25688;52.338;21.072;2023-08-31T12:51:11;8.52;;;3.08;;
39996;SDS011;25688;52.338;21.072;2023-08-31T12:53:39;7.13;;;2.88;;
39996;SDS011;25688;52.338;21.072;2023-08-31T12:56:05;5.90;;;3.15;;
39996;SDS011;25688;52.338;21.072;2023-08-31T12:58:31;5.32;;;3.05;;
39996;SDS011;25688;52.338;21.072;2023-08-31T13:01:00;6.45;;;3.00;;
39996;SDS011;25688;52.338;21.072;2023-08-31T13:03:26;4.97;;;2.78;;
39996;SDS011;25688;52.338;21.072;2023-08-31T13:05:52;4.15;;;2.53;;
39996;SDS011;25688;52.338;21.072;2023-08-31T13:08:18;4.57;;;3.20;;
39996;SDS011;25688;52.338;21.072;2023-08-31T13:10:50;4.40;;;2.90;;
39996;SDS011;25688;52.338;21.072;2023-08-31T13:13:20;5.55;;;2.75;;
39996;SDS011;25688;52.338;21.072;2023-08-31T13:15:46;6.70;;;3.10;;
39996;SDS011;25688;52.338;21.072;2023-08-31T13:18:13;5.70;;;3.10;;
39996;SDS011;25688;52.338;21.072;2023-08-31T13:20:38;7.10;;;3.70;;
39996;SDS011;25688;52.338;21.072;2023-08-31T13:23:04;4.68;;;2.90;;
39996;SDS011;25688;52.338;21.072;2023-08-31T13:25:30;3.65;;;2.40;;
39996;SDS011;25688;52.338;21.072;2023-08-31T13:27:59;6.20;;;3.00;;
39996;SDS011;25688;52.338;21.072;2023-08-31T13:30:25;6.32;;;3.35;;
39996;SDS011;25688;52.338;21.072;2023-08-31T13:32:51;6.07;;;3.28;;
39996;SDS011;25688;52.338;21.072;2023-08-31T13:35:17;5.95;;;2.90;;
39996;SDS011;25688;52.338;21.072;2023-08-31T13:37:42;8.32;;;3.53;;
39996;SDS011;25688;52.338;21.072;2023-08-31T13:40:09;7.45;;;3.70;;
39996;SDS011;25688;52.338;21.072;2023-08-31T13:42:35;8.00;;;3.28;;
39996;SDS011;25688;52.338;21.072;2023-08-31T13:45:07;6.85;;;3.50;;
39996;SDS011;25688;52.338;21.072;2023-08-31T13:47:33;4.85;;;3.28;;
39996;SDS011;25688;52.338;21.072;2023-08-31T13:49:59;5.88;;;3.63;;
39996;SDS011;25688;52.338;21.072;2023-08-31T13:52:25;5.78;;;3.45;;
39996;SDS011;25688;52.338;21.072;2023-08-31T13:54:51;7.07;;;3.90;;
39996;SDS011;25688;52.338;21.072;2023-08-31T13:57:18;7.30;;;3.33;;
39996;SDS011;25688;52.338;21.072;2023-08-31T13:59:44;5.65;;;3.30;;
39996;SDS011;25688;52.338;21.072;2023-08-31T14:02:10;6.38;;;3.42;;
39996;SDS011;25688;52.338;21.072;2023-08-31T14:04:35;5.20;;;3.08;;
39996;SDS011;25688;52.338;21.072;2023-08-31T14:07:01;6.82;;;3.53;;
39996;SDS011;25688;52.338;21.072;2023-08-31T14:09:27;9.65;;;4.05;;
39996;SDS011;25688;52.338;21.072;2023-08-31T14:11:53;17.73;;;3.30;;
39996;SDS011;25688;52.338;21.072;2023-08-31T14:14:22;10.77;;;3.38;;
39996;SDS011;25688;52.338;21.072;2023-08-31T14:16:50;11.88;;;4.03;;
39996;SDS011;25688;52.338;21.072;2023-08-31T14:19:16;9.73;;;4.05;;
39996;SDS011;25688;52.338;21.072;2023-08-31T14:21:43;10.48;;;4.20;;
39996;SDS011;25688;52.338;21.072;2023-08-31T14:24:09;5.20;;;2.78;;
39996;SDS011;25688;52.338;21.072;2023-08-31T14:26:40;6.70;;;3.00;;
39996;SDS011;25688;52.338;21.072;2023-08-31T14:29:05;6.95;;;3.30;;
39996;SDS011;25688;52.338;21.072;2023-08-31T14:31:31;5.82;;;3.33;;
39996;SDS011;25688;52.338;21.072;2023-08-31T14:33:57;8.02;;;3.47;;
39996;SDS011;25688;52.338;21.072;2023-08-31T14:36:22;7.10;;;3.63;;
39996;SDS011;25688;52.338;21.072;2023-08-31T14:38:51;7.10;;;4.00;;
39996;SDS011;25688;52.338;21.072;2023-08-31T14:41:16;9.43;;;4.05;;
39996;SDS011;25688;52.338;21.072;2023-08-31T14:43:42;7.50;;;3.92;;